createdAt,value
2023-04-21T00:02:02.019Z,11.02
2023-04-21T00:04:28.052Z,11.52
2023-04-21T00:06:53.991Z,13.15
2023-04-21T00:09:20.564Z,12.65
2023-04-21T00:11:46.447Z,24.00
2023-04-21T00:14:12.283Z,22.10
2023-04-21T00:16:38.197Z,15.18
2023-04-21T00:19:06.349Z,11.35
2023-04-21T00:21:32.589Z,11.70
2023-04-21T00:23:58.310Z,15.90
2023-04-21T00:26:24.144Z,8.77
2023-04-21T00:28:49.983Z,11.35
2023-04-21T00:31:16.044Z,15.23
2023-04-21T00:33:41.888Z,12.38
2023-04-21T00:36:07.648Z,12.40
2023-04-21T00:38:33.369Z,9.65
2023-04-21T00:40:59.123Z,20.20
2023-04-21T00:43:25.139Z,11.27
2023-04-21T00:45:50.976Z,13.30
2023-04-21T00:48:16.834Z,16.85
2023-04-21T00:50:43.866Z,10.25
2023-04-21T00:53:10.277Z,20.30
2023-04-21T00:55:36.076Z,16.30
2023-04-21T00:58:02.170Z,11.50
2023-04-21T01:00:28.334Z,11.50
2023-04-21T01:02:54.735Z,15.25
2023-04-21T01:05:20.537Z,14.32
2023-04-21T01:07:46.297Z,11.20
2023-04-21T01:10:12.041Z,20.00
2023-04-21T01:12:44.705Z,13.07
2023-04-21T01:15:11.884Z,24.95
2023-04-21T01:17:38.128Z,12.63
2023-04-21T01:20:08.360Z,14.73
2023-04-21T01:22:37.511Z,12.00
2023-04-21T01:25:03.479Z,13.00
2023-04-21T01:27:29.229Z,14.90
2023-04-21T01:29:55.051Z,15.55
2023-04-21T01:32:23.652Z,13.70
2023-04-21T01:34:49.502Z,12.00
2023-04-21T01:37:16.518Z,22.67
2023-04-21T01:39:43.193Z,12.95
2023-04-21T01:42:09.304Z,17.98
2023-04-21T01:44:35.440Z,16.52
2023-04-21T01:47:01.330Z,21.23
2023-04-21T01:49:27.051Z,13.40
2023-04-21T01:51:52.793Z,10.05
2023-04-21T01:54:18.554Z,16.63
2023-04-21T01:56:44.358Z,15.00
2023-04-21T01:59:10.161Z,14.15
2023-04-21T02:01:36.080Z,15.15
2023-04-21T02:04:02.971Z,20.08
2023-04-21T02:06:30.823Z,13.80
2023-04-21T02:08:57.452Z,15.70
2023-04-21T02:11:26.167Z,15.32
2023-04-21T02:13:52.978Z,12.00
2023-04-21T02:16:19.980Z,13.88
2023-04-21T02:18:46.486Z,11.77
2023-04-21T02:21:12.315Z,12.90
2023-04-21T02:23:38.108Z,14.77
2023-04-21T02:26:03.886Z,15.30
2023-04-21T02:28:31.012Z,15.20
2023-04-21T02:30:57.011Z,14.40
2023-04-21T02:33:22.865Z,14.45
2023-04-21T02:35:48.651Z,15.88
2023-04-21T02:38:14.361Z,13.63
2023-04-21T02:40:40.479Z,12.32
2023-04-21T02:43:07.129Z,20.52
2023-04-21T02:45:33.128Z,18.50
2023-04-21T02:47:58.877Z,20.58
2023-04-21T02:50:24.940Z,13.50
2023-04-21T02:52:50.664Z,13.75
2023-04-21T02:55:16.401Z,19.02
2023-04-21T02:57:42.130Z,14.52
2023-04-21T03:00:08.936Z,16.42
2023-04-21T03:02:35.383Z,13.55
2023-04-21T03:05:01.802Z,18.40
2023-04-21T03:07:27.545Z,14.20
2023-04-21T03:09:53.257Z,12.10
2023-04-21T03:12:18.978Z,15.25
2023-04-21T03:14:45.137Z,15.25
2023-04-21T03:17:10.851Z,14.52
2023-04-21T03:19:36.593Z,11.85
2023-04-21T03:22:02.343Z,14.05
2023-04-21T03:24:28.181Z,12.70
2023-04-21T03:26:54.766Z,19.20
2023-04-21T03:29:20.555Z,11.07
2023-04-21T03:31:46.514Z,18.30
2023-04-21T03:34:12.271Z,18.48
2023-04-21T03:36:38.037Z,16.42
2023-04-21T03:39:18.811Z,18.63
2023-04-21T03:41:45.687Z,13.13
2023-04-21T03:44:11.411Z,21.67
2023-04-21T03:46:37.288Z,14.40
2023-04-21T03:49:03.915Z,14.23
2023-04-21T03:51:31.740Z,12.48
2023-04-21T03:53:57.658Z,13.60
2023-04-21T03:56:23.383Z,17.15
2023-04-21T03:58:49.127Z,15.00
2023-04-21T04:01:15.145Z,15.20
2023-04-21T04:03:41.113Z,12.70
2023-04-21T04:06:07.118Z,16.42
2023-04-21T04:08:33.000Z,19.48
2023-04-21T04:10:58.901Z,16.40
2023-04-21T04:13:25.876Z,19.30
2023-04-21T04:15:58.098Z,17.27
2023-04-21T04:18:24.052Z,16.95
2023-04-21T04:20:49.802Z,15.13
2023-04-21T04:23:15.589Z,14.25
2023-04-21T04:25:42.097Z,15.68
2023-04-21T04:28:08.639Z,14.77
2023-04-21T04:30:34.728Z,20.95
2023-04-21T04:33:00.846Z,12.50
2023-04-21T04:35:26.702Z,14.10
2023-04-21T04:37:54.498Z,11.60
2023-04-21T04:40:21.888Z,19.40
2023-04-21T04:42:48.339Z,14.25
2023-04-21T04:45:20.760Z,12.82
2023-04-21T04:47:46.525Z,16.08
2023-04-21T04:50:12.603Z,16.02
2023-04-21T04:52:38.607Z,12.13
2023-04-21T04:55:05.535Z,22.05
2023-04-21T04:57:31.325Z,16.85
2023-04-21T04:59:57.111Z,16.73
2023-04-21T05:02:23.625Z,14.43
2023-04-21T05:04:50.402Z,15.23
2023-04-21T05:07:16.230Z,13.48
2023-04-21T05:09:42.056Z,15.68
2023-04-21T05:12:07.920Z,16.95
2023-04-21T05:14:40.097Z,14.60
2023-04-21T05:17:06.059Z,16.70
2023-04-21T05:19:34.428Z,12.60
2023-04-21T05:22:00.787Z,13.00
2023-04-21T05:24:26.908Z,20.38
2023-04-21T05:26:52.791Z,16.40
2023-04-21T05:29:19.060Z,15.30
2023-04-21T05:31:45.337Z,12.48
2023-04-21T05:34:12.369Z,14.35
2023-04-21T05:36:41.213Z,11.38
2023-04-21T05:39:07.092Z,13.68
2023-04-21T05:41:32.949Z,11.90
2023-04-21T05:43:59.818Z,12.65
2023-04-21T05:46:26.070Z,11.50
2023-04-21T05:48:52.048Z,11.13
2023-04-21T05:51:17.953Z,14.75
2023-04-21T05:53:44.692Z,10.85
2023-04-21T05:56:11.366Z,15.30
2023-04-21T05:58:39.040Z,12.88
2023-04-21T06:01:09.159Z,11.25
2023-04-21T06:03:35.223Z,15.43
2023-04-21T06:06:02.481Z,14.32
2023-04-21T06:08:28.527Z,17.80
2023-04-21T06:10:54.503Z,14.00
2023-04-21T06:13:20.492Z,22.40
2023-04-21T06:15:55.960Z,15.50
2023-04-21T06:18:21.944Z,13.48
2023-04-21T06:20:51.421Z,12.27
2023-04-21T06:23:17.708Z,16.77
2023-04-21T06:25:44.760Z,11.52
2023-04-21T06:28:10.712Z,16.25
2023-04-21T06:30:36.644Z,14.43
2023-04-21T06:33:04.413Z,12.40
2023-04-21T06:35:30.404Z,20.05
2023-04-21T06:37:56.248Z,13.02
2023-04-21T06:40:22.137Z,12.68
2023-04-21T06:42:48.023Z,13.98
2023-04-21T06:45:26.071Z,14.90
2023-04-21T06:47:52.086Z,12.77
2023-04-21T06:50:18.495Z,17.92
2023-04-21T06:52:46.402Z,12.70
2023-04-21T06:55:12.367Z,14.57
2023-04-21T06:57:38.629Z,13.30
2023-04-21T07:00:05.232Z,13.68
2023-04-21T07:02:31.643Z,17.95
2023-04-21T07:04:57.529Z,14.32
2023-04-21T07:07:23.491Z,15.13
2023-04-21T07:09:49.333Z,15.15
2023-04-21T07:12:15.330Z,13.82
2023-04-21T07:14:53.798Z,20.00
2023-04-21T07:17:20.186Z,14.93
2023-04-21T07:19:46.384Z,10.18
2023-04-21T07:22:12.264Z,16.05
2023-04-21T07:24:38.638Z,16.48
2023-04-21T07:27:04.433Z,10.82
2023-04-21T07:29:30.644Z,12.85
2023-04-21T07:31:57.988Z,13.35
2023-04-21T07:34:24.476Z,12.20
2023-04-21T07:36:51.424Z,14.88
2023-04-21T07:39:17.792Z,19.02
2023-04-21T07:41:43.712Z,14.23
2023-04-21T07:44:09.485Z,10.35
2023-04-21T07:46:35.340Z,10.95
2023-04-21T07:49:03.783Z,18.83
2023-04-21T07:51:31.241Z,14.90
2023-04-21T07:53:57.195Z,14.35
2023-04-21T07:56:23.056Z,11.23
2023-04-21T07:58:48.878Z,11.00
2023-04-21T08:01:14.905Z,16.92
2023-04-21T08:03:40.843Z,14.20
2023-04-21T08:06:07.184Z,11.00
2023-04-21T08:08:33.350Z,12.40
2023-04-21T08:10:59.140Z,12.05
2023-04-21T08:13:25.018Z,14.15
2023-04-21T08:15:51.389Z,16.45
2023-04-21T08:18:19.914Z,12.15
2023-04-21T08:20:48.308Z,9.60
2023-04-21T08:23:14.947Z,13.65
2023-04-21T08:25:40.902Z,14.10
2023-04-21T08:28:07.073Z,10.77
2023-04-21T08:30:32.874Z,10.25
2023-04-21T08:32:59.004Z,13.43
2023-04-21T08:35:25.203Z,14.00
2023-04-21T08:37:52.254Z,11.88
2023-04-21T08:40:19.507Z,15.52
2023-04-21T08:42:45.503Z,12.23
2023-04-21T08:45:11.809Z,9.77
2023-04-21T08:47:39.132Z,9.45
2023-04-21T08:50:06.161Z,10.88
2023-04-21T08:52:32.045Z,13.50
2023-04-21T08:54:57.903Z,9.38
2023-04-21T08:57:24.057Z,12.88
2023-04-21T08:59:50.028Z,10.30
2023-04-21T09:02:16.794Z,11.38
2023-04-21T09:04:46.910Z,8.27
2023-04-21T09:07:30.018Z,10.98
2023-04-21T09:09:56.684Z,9.88
2023-04-21T09:12:23.404Z,11.20
2023-04-21T09:14:49.666Z,9.55
2023-04-21T09:17:16.859Z,9.27
2023-04-21T09:19:42.914Z,7.85
2023-04-21T09:22:09.088Z,10.52
2023-04-21T09:24:35.205Z,12.60
2023-04-21T09:27:03.282Z,8.93
2023-04-21T09:29:29.555Z,6.97
2023-04-21T09:31:55.471Z,11.18
2023-04-21T09:34:21.299Z,13.75
2023-04-21T09:36:47.700Z,8.18
2023-04-21T09:39:34.293Z,11.20
2023-04-21T09:42:01.646Z,8.13
2023-04-21T09:44:27.835Z,7.65
2023-04-21T09:46:57.915Z,10.95
2023-04-21T09:49:26.897Z,8.25
2023-04-21T09:54:30.016Z,11.15
2023-04-21T09:56:58.980Z,9.30
2023-04-21T09:59:27.597Z,9.10
2023-04-21T10:01:55.129Z,10.40
2023-04-21T10:04:23.079Z,8.32
2023-04-21T10:06:50.854Z,9.25
2023-04-21T10:09:18.286Z,6.93
2023-04-21T10:11:44.888Z,8.43
2023-04-21T10:14:12.592Z,9.68
2023-04-21T10:16:43.760Z,10.10
2023-04-21T10:19:23.033Z,9.70
2023-04-21T10:21:49.660Z,10.18
2023-04-21T10:24:15.830Z,12.90
2023-04-21T10:26:41.934Z,9.75
2023-04-21T10:29:08.957Z,7.55
2023-04-21T10:31:36.192Z,7.35
2023-04-21T10:34:05.067Z,8.25
2023-04-21T10:36:31.245Z,10.63
2023-04-21T10:39:00.377Z,8.40
2023-04-21T10:41:29.853Z,7.07
2023-04-21T10:43:59.534Z,7.38
2023-04-21T10:46:31.691Z,9.25
2023-04-21T10:49:04.530Z,9.27
2023-04-21T10:51:32.499Z,10.77
2023-04-21T10:53:58.467Z,7.53
2023-04-21T10:56:24.998Z,10.57
2023-04-21T10:58:52.374Z,10.93
2023-04-21T11:01:20.131Z,8.13
2023-04-21T11:03:46.584Z,9.40
2023-04-21T11:06:17.369Z,9.75
2023-04-21T11:08:56.090Z,11.98
2023-04-21T11:11:23.437Z,8.23
2023-04-21T11:13:51.878Z,6.63
2023-04-21T11:16:19.920Z,8.88
2023-04-21T11:18:47.610Z,9.05
2023-04-21T11:21:18.246Z,9.07
2023-04-21T11:23:52.271Z,9.40
2023-04-21T11:26:19.095Z,6.93
2023-04-21T11:28:49.142Z,6.72
2023-04-21T11:31:15.420Z,5.53
2023-04-21T11:33:42.030Z,13.45
2023-04-21T11:36:08.023Z,8.80
2023-04-21T11:38:38.868Z,9.30
2023-04-21T11:41:04.879Z,6.15
2023-04-21T11:43:31.246Z,6.63
2023-04-21T11:46:13.215Z,8.65
2023-04-21T11:48:39.311Z,6.85
2023-04-21T11:51:05.589Z,5.80
2023-04-21T11:53:32.544Z,7.20
2023-04-21T11:55:58.981Z,6.68
2023-04-21T11:58:25.921Z,7.88
2023-04-21T12:00:51.827Z,9.90
2023-04-21T12:03:19.401Z,11.07
2023-04-21T12:05:45.548Z,8.32
2023-04-21T12:08:15.726Z,7.18
2023-04-21T12:10:46.740Z,6.03
2023-04-21T12:13:13.197Z,5.95
2023-04-21T12:15:39.195Z,9.00
2023-04-21T12:18:12.142Z,10.77
2023-04-21T12:20:38.168Z,9.35
2023-04-21T12:23:04.024Z,7.28
2023-04-21T12:25:30.718Z,8.55
2023-04-21T12:27:59.974Z,12.65
2023-04-21T12:30:25.788Z,5.78
2023-04-21T12:32:53.688Z,13.15
2023-04-21T12:35:19.911Z,8.02
2023-04-21T12:37:46.198Z,10.20
2023-04-21T12:40:12.423Z,9.15
2023-04-21T12:42:38.661Z,8.15
2023-04-21T12:45:31.324Z,17.67
2023-04-21T12:47:58.290Z,10.13
2023-04-21T12:50:24.176Z,13.15
2023-04-21T12:52:51.159Z,8.23
2023-04-21T12:55:17.811Z,10.05
2023-04-21T12:57:44.757Z,8.43
2023-04-21T13:00:12.505Z,9.50
2023-04-21T13:02:40.697Z,8.60
2023-04-21T13:05:06.907Z,6.60
2023-04-21T13:07:33.178Z,8.27
2023-04-21T13:09:59.424Z,9.82
2023-04-21T13:12:26.191Z,10.45
2023-04-21T13:14:52.212Z,11.07
2023-04-21T13:17:18.366Z,5.75
2023-04-21T13:19:44.505Z,9.02
2023-04-21T13:22:10.494Z,7.25
2023-04-21T13:24:37.832Z,12.50
2023-04-21T13:27:04.459Z,10.05
2023-04-21T13:29:34.088Z,11.15
2023-04-21T13:32:04.223Z,9.48
2023-04-21T13:34:30.999Z,9.85
2023-04-21T13:36:57.415Z,7.32
2023-04-21T13:39:23.530Z,8.68
2023-04-21T13:41:50.579Z,10.35
2023-04-21T13:44:18.081Z,10.32
2023-04-21T13:46:44.183Z,7.93
2023-04-21T13:49:10.261Z,8.13
2023-04-21T13:51:36.338Z,5.55
2023-04-21T13:54:02.226Z,6.40
2023-04-21T13:56:28.275Z,10.70
2023-04-21T13:58:59.857Z,5.90
2023-04-21T14:01:25.999Z,8.30
2023-04-21T14:03:53.398Z,6.28
2023-04-21T14:06:20.168Z,6.45
2023-04-21T14:08:46.953Z,7.88
2023-04-21T14:11:12.896Z,6.82
2023-04-21T14:13:47.872Z,5.35
2023-04-21T14:16:28.238Z,7.53
2023-04-21T14:18:55.060Z,5.47
2023-04-21T14:21:21.159Z,7.07
2023-04-21T14:23:47.336Z,7.55
2023-04-21T14:26:13.508Z,10.45
2023-04-21T14:28:40.546Z,6.28
2023-04-21T14:31:07.055Z,8.10
2023-04-21T14:33:33.100Z,7.00
2023-04-21T14:35:59.172Z,6.38
2023-04-21T14:38:25.139Z,6.45
2023-04-21T14:40:53.825Z,9.27
2023-04-21T14:43:20.150Z,8.57
2023-04-21T14:45:47.248Z,7.50
2023-04-21T14:48:13.862Z,7.20
2023-04-21T14:50:40.229Z,8.60
2023-04-21T14:53:06.431Z,7.25
2023-04-21T14:55:32.670Z,4.68
2023-04-21T14:57:58.689Z,5.68
2023-04-21T15:00:25.711Z,5.90
2023-04-21T15:02:52.224Z,6.35
2023-04-21T15:05:18.234Z,7.25
2023-04-21T15:07:45.597Z,5.75
2023-04-21T15:10:12.118Z,5.90
2023-04-21T15:12:41.334Z,4.90
2023-04-21T15:15:12.915Z,10.57
2023-04-21T15:17:38.972Z,10.60
2023-04-21T15:20:05.251Z,4.07
2023-04-21T15:22:31.322Z,5.20
2023-04-21T15:24:57.248Z,6.85
2023-04-21T15:27:23.240Z,10.00
2023-04-21T15:29:49.188Z,10.15
2023-04-21T15:32:15.216Z,6.13
2023-04-21T15:34:41.495Z,6.72
2023-04-21T15:37:07.551Z,6.40
2023-04-21T15:39:33.506Z,6.00
2023-04-21T15:41:59.849Z,5.85
2023-04-21T15:44:25.932Z,4.53
2023-04-21T15:46:51.913Z,8.45
2023-04-21T15:49:17.868Z,4.10
2023-04-21T15:51:43.861Z,14.63
2023-04-21T15:54:11.031Z,5.72
2023-04-21T15:56:37.106Z,7.25
2023-04-21T15:59:03.478Z,6.93
2023-04-21T16:01:32.787Z,5.65
2023-04-21T16:03:59.009Z,6.80
2023-04-21T16:06:26.315Z,5.50
2023-04-21T16:08:55.032Z,4.97
2023-04-21T16:11:24.463Z,5.22
2023-04-21T16:13:51.451Z,7.07
2023-04-21T16:16:26.885Z,6.70
2023-04-21T16:18:52.980Z,7.07
2023-04-21T16:21:19.522Z,5.18
2023-04-21T16:23:45.593Z,7.70
2023-04-21T16:26:11.486Z,7.45
2023-04-21T16:28:37.354Z,7.68
2023-04-21T16:31:03.633Z,5.15
2023-04-21T16:33:30.090Z,5.57
2023-04-21T16:35:57.430Z,5.18
2023-04-21T16:38:23.822Z,8.55
2023-04-21T16:40:50.301Z,6.20
2023-04-21T16:43:16.295Z,5.80
2023-04-21T16:45:51.784Z,6.53
2023-04-21T16:48:17.855Z,6.60
2023-04-21T16:50:49.865Z,5.75
2023-04-21T16:53:17.020Z,8.98
2023-04-21T16:55:43.650Z,6.93
2023-04-21T16:58:09.693Z,9.98
2023-04-21T17:00:37.497Z,5.88
2023-04-21T17:03:04.163Z,4.97
2023-04-21T17:05:30.348Z,6.05
2023-04-21T17:07:56.142Z,7.20
2023-04-21T17:10:22.278Z,6.18
2023-04-21T17:12:48.154Z,6.85
2023-04-21T17:15:17.284Z,6.65
2023-04-21T17:17:44.546Z,10.23
2023-04-21T17:20:11.747Z,8.15
2023-04-21T17:22:38.298Z,6.68
2023-04-21T17:25:04.891Z,4.97
2023-04-21T17:27:31.421Z,8.38
2023-04-21T17:29:57.588Z,8.15
2023-04-21T17:32:24.158Z,8.40
2023-04-21T17:34:50.016Z,8.25
2023-04-21T17:37:15.825Z,5.57
2023-04-21T17:39:41.885Z,6.45
2023-04-21T17:42:07.679Z,4.43
2023-04-21T17:44:33.818Z,6.43
2023-04-21T17:47:00.096Z,5.72
2023-04-21T17:49:25.972Z,6.60
2023-04-21T17:51:52.386Z,8.05
2023-04-21T17:54:19.709Z,5.90
2023-04-21T17:56:45.555Z,6.05
2023-04-21T17:59:11.792Z,5.93
2023-04-21T18:01:37.957Z,7.05
2023-04-21T18:04:05.064Z,6.18
2023-04-21T18:06:31.466Z,4.00
2023-04-21T18:08:58.057Z,7.60
2023-04-21T18:11:23.922Z,8.10
2023-04-21T18:13:49.805Z,7.40
2023-04-21T18:16:15.785Z,9.68
2023-04-21T18:18:41.698Z,5.03
2023-04-21T18:21:07.617Z,7.40
2023-04-21T18:23:34.103Z,7.63
2023-04-21T18:26:00.649Z,6.78
2023-04-21T18:28:26.522Z,8.35
2023-04-21T18:30:52.494Z,12.23
2023-04-21T18:33:18.478Z,8.05
2023-04-21T18:35:44.913Z,5.50
2023-04-21T18:38:13.904Z,6.72
2023-04-21T18:40:40.744Z,7.85
2023-04-21T18:43:07.137Z,6.00
2023-04-21T18:45:38.582Z,6.68
2023-04-21T18:48:04.630Z,6.30
2023-04-21T18:50:31.813Z,5.05
2023-04-21T18:52:57.965Z,13.25
2023-04-21T18:55:23.918Z,8.05
2023-04-21T18:57:50.120Z,9.07
2023-04-21T19:00:16.515Z,5.70
2023-04-21T19:02:42.625Z,6.75
2023-04-21T19:05:09.001Z,7.65
2023-04-21T19:07:37.472Z,8.18
2023-04-21T19:10:03.687Z,7.28
2023-04-21T19:12:29.674Z,6.75
2023-04-21T19:15:20.669Z,6.40
2023-04-21T19:17:46.642Z,5.68
2023-04-21T19:20:13.084Z,6.78
2023-04-21T19:22:39.062Z,7.65
2023-04-21T19:25:05.619Z,7.30
2023-04-21T19:27:31.557Z,8.13
2023-04-21T19:29:58.254Z,7.53
2023-04-21T19:32:24.812Z,7.05
2023-04-21T19:34:51.551Z,7.63
2023-04-21T19:37:17.451Z,6.40
2023-04-21T19:39:44.070Z,6.20
2023-04-21T19:42:10.160Z,4.63
2023-04-21T19:44:45.361Z,5.47
2023-04-21T19:47:11.257Z,6.93
2023-04-21T19:49:37.127Z,6.90
2023-04-21T19:52:03.228Z,5.43
2023-04-21T19:54:29.162Z,8.30
2023-04-21T19:56:55.403Z,9.98
2023-04-21T19:59:21.412Z,8.85
2023-04-21T20:01:47.409Z,6.25
2023-04-21T20:04:13.606Z,7.68
2023-04-21T20:06:41.140Z,9.45
2023-04-21T20:09:07.502Z,8.95
2023-04-21T20:11:34.083Z,7.45
2023-04-21T20:14:00.580Z,8.13
2023-04-21T20:16:29.074Z,6.85
2023-04-21T20:18:55.225Z,6.90
2023-04-21T20:21:21.212Z,6.00
2023-04-21T20:23:46.996Z,6.07
2023-04-21T20:26:13.207Z,6.43
2023-04-21T20:28:39.778Z,9.30
2023-04-21T20:31:05.651Z,5.15
2023-04-21T20:33:31.471Z,8.00
2023-04-21T20:35:57.408Z,6.97
2023-04-21T20:38:23.384Z,8.60
2023-04-21T20:40:53.164Z,7.40
2023-04-21T20:43:20.225Z,8.47
2023-04-21T20:45:50.230Z,9.23
2023-04-21T20:48:16.043Z,9.23
2023-04-21T20:50:44.025Z,7.90
2023-04-21T20:53:11.396Z,10.88
2023-04-21T20:55:37.285Z,7.38
2023-04-21T20:58:04.044Z,6.38
2023-04-21T21:00:32.169Z,8.63
2023-04-21T21:02:58.759Z,6.82
2023-04-21T21:05:24.715Z,7.82
2023-04-21T21:07:50.696Z,7.55
2023-04-21T21:10:18.443Z,7.35
2023-04-21T21:12:44.570Z,6.47
2023-04-21T21:15:11.572Z,7.20
2023-04-21T21:17:37.478Z,8.38
2023-04-21T21:20:03.497Z,7.95
2023-04-21T21:22:29.327Z,7.65
2023-04-21T21:24:55.227Z,7.55
2023-04-21T21:27:21.084Z,8.52
2023-04-21T21:29:46.925Z,7.13
2023-04-21T21:32:13.017Z,8.80
2023-04-21T21:34:39.244Z,7.60
2023-04-21T21:37:05.137Z,9.30
2023-04-21T21:39:31.401Z,9.10
2023-04-21T21:41:57.931Z,6.57
2023-04-21T21:44:25.379Z,6.40
2023-04-21T21:46:53.750Z,7.90
2023-04-21T21:49:19.883Z,8.77
2023-04-21T21:51:45.868Z,8.65
2023-04-21T21:54:11.812Z,8.63
2023-04-21T21:56:37.853Z,6.88
2023-04-21T21:59:03.862Z,9.27
2023-04-21T22:01:29.800Z,9.32
2023-04-21T22:03:55.826Z,8.07
2023-04-21T22:06:23.809Z,10.82
2023-04-21T22:08:49.707Z,13.80
2023-04-21T22:11:15.885Z,8.48
2023-04-21T22:13:41.853Z,6.85
2023-04-21T22:16:11.055Z,6.10
2023-04-21T22:18:37.225Z,6.35
2023-04-21T22:21:03.579Z,7.68
2023-04-21T22:23:29.946Z,12.25
2023-04-21T22:25:56.043Z,6.80
2023-04-21T22:28:21.916Z,7.90
2023-04-21T22:30:47.856Z,8.93
2023-04-21T22:33:13.704Z,7.68
2023-04-21T22:35:39.573Z,9.32
2023-04-21T22:38:05.328Z,7.97
2023-04-21T22:40:32.074Z,8.80
2023-04-21T22:42:57.888Z,12.50
2023-04-21T22:45:26.835Z,7.20
2023-04-21T22:47:52.774Z,8.80
2023-04-21T22:50:19.199Z,7.38
2023-04-21T22:52:45.209Z,8.18
2023-04-21T22:55:11.384Z,10.10
2023-04-21T22:57:37.135Z,9.70
2023-04-21T23:00:08.979Z,7.60
2023-04-21T23:02:35.743Z,7.38
2023-04-21T23:05:01.870Z,11.45
2023-04-21T23:07:27.709Z,8.50
2023-04-21T23:09:53.419Z,9.65
2023-04-21T23:12:19.342Z,5.88
2023-04-21T23:14:45.181Z,9.93
2023-04-21T23:17:10.905Z,8.85
2023-04-21T23:19:36.868Z,7.30
2023-04-21T23:22:02.870Z,9.35
2023-04-21T23:24:28.683Z,7.30
2023-04-21T23:26:54.391Z,9.07
2023-04-21T23:29:20.284Z,10.23
2023-04-21T23:31:46.127Z,10.07
2023-04-21T23:34:12.034Z,8.73
2023-04-21T23:36:37.757Z,8.20
2023-04-21T23:39:03.591Z,8.20
2023-04-21T23:41:29.338Z,10.27
2023-04-21T23:43:55.172Z,9.25
2023-04-21T23:46:20.932Z,10.95
2023-04-21T23:48:46.703Z,8.73
2023-04-21T23:51:12.505Z,10.15
2023-04-21T23:53:38.404Z,8.73
2023-04-21T23:56:04.178Z,9.95
2023-04-21T23:58:29.877Z,11.55
